sensor_id;sensor_type;location;lat;lon;timestamp;P1;durP1;ratioP1;P2;durP2;ratioP2
8536;SDS011;4306;50.210;10.628;2022-07-22T00:01:36;8.32;;;6.03;;
8536;SDS011;4306;50.210;10.628;2022-07-22T00:04:03;8.55;;;6.20;;
8536;SDS011;4306;50.210;10.628;2022-07-22T00:06:31;7.72;;;6.30;;
8536;SDS011;4306;50.210;10.628;2022-07-22T00:08:58;6.75;;;6.05;;
8536;SDS011;4306;50.210;10.628;2022-07-22T00:11:25;8.48;;;6.65;;
8536;SDS011;4306;50.210;10.628;2022-07-22T00:13:53;8.63;;;6.15;;
8536;SDS011;4306;50.210;10.628;2022-07-22T00:16:20;10.95;;;6.35;;
8536;SDS011;4306;50.210;10.628;2022-07-22T00:18:47;7.97;;;6.50;;
8536;SDS011;4306;50.210;10.628;2022-07-22T00:21:13;8.23;;;6.32;;
8536;SDS011;4306;50.210;10.628;2022-07-22T00:23:42;7.20;;;6.18;;
8536;SDS011;4306;50.210;10.628;2022-07-22T00:26:09;10.32;;;6.50;;
8536;SDS011;4306;50.210;10.628;2022-07-22T00:28:36;8.07;;;6.05;;
8536;SDS011;4306;50.210;10.628;2022-07-22T00:31:03;7.88;;;6.47;;
8536;SDS011;4306;50.210;10.628;2022-07-22T00:33:30;8.80;;;6.43;;
8536;SDS011;4306;50.210;10.628;2022-07-22T00:35:57;8.68;;;6.25;;
8536;SDS011;4306;50.210;10.628;2022-07-22T00:38:24;7.88;;;6.25;;
8536;SDS011;4306;50.210;10.628;2022-07-22T00:40:52;10.18;;;6.80;;
8536;SDS011;4306;50.210;10.628;2022-07-22T00:43:19;7.22;;;6.22;;
8536;SDS011;4306;50.210;10.628;2022-07-22T00:45:46;10.85;;;6.95;;
8536;SDS011;4306;50.210;10.628;2022-07-22T00:48:13;7.45;;;6.57;;
8536;SDS011;4306;50.210;10.628;2022-07-22T00:50:40;9.35;;;6.47;;
8536;SDS011;4306;50.210;10.628;2022-07-22T00:53:07;8.57;;;6.43;;
8536;SDS011;4306;50.210;10.628;2022-07-22T00:55:34;8.35;;;7.07;;
8536;SDS011;4306;50.210;10.628;2022-07-22T00:58:03;11.48;;;6.40;;
8536;SDS011;4306;50.210;10.628;2022-07-22T01:00:30;8.27;;;6.03;;
8536;SDS011;4306;50.210;10.628;2022-07-22T01:02:58;8.63;;;6.28;;
8536;SDS011;4306;50.210;10.628;2022-07-22T01:05:24;8.30;;;6.20;;
8536;SDS011;4306;50.210;10.628;2022-07-22T01:07:51;10.02;;;6.32;;
8536;SDS011;4306;50.210;10.628;2022-07-22T01:10:18;7.50;;;5.78;;
8536;SDS011;4306;50.210;10.628;2022-07-22T01:12:46;7.20;;;5.88;;
8536;SDS011;4306;50.210;10.628;2022-07-22T01:15:14;8.93;;;6.65;;
8536;SDS011;4306;50.210;10.628;2022-07-22T01:17:41;7.72;;;6.55;;
8536;SDS011;4306;50.210;10.628;2022-07-22T01:20:10;8.00;;;6.88;;
8536;SDS011;4306;50.210;10.628;2022-07-22T01:22:37;7.38;;;6.38;;
8536;SDS011;4306;50.210;10.628;2022-07-22T01:25:04;8.18;;;6.72;;
8536;SDS011;4306;50.210;10.628;2022-07-22T01:27:32;10.65;;;7.10;;
8536;SDS011;4306;50.210;10.628;2022-07-22T01:29:59;8.50;;;6.80;;
8536;SDS011;4306;50.210;10.628;2022-07-22T01:32:26;8.60;;;6.82;;
8536;SDS011;4306;50.210;10.628;2022-07-22T01:34:53;9.93;;;6.68;;
8536;SDS011;4306;50.210;10.628;2022-07-22T01:37:21;7.43;;;6.53;;
8536;SDS011;4306;50.210;10.628;2022-07-22T01:39:48;8.35;;;6.32;;
8536;SDS011;4306;50.210;10.628;2022-07-22T01:42:16;8.40;;;6.13;;
8536;SDS011;4306;50.210;10.628;2022-07-22T01:44:43;9.88;;;6.93;;
8536;SDS011;4306;50.210;10.628;2022-07-22T01:47:10;7.97;;;6.20;;
8536;SDS011;4306;50.210;10.628;2022-07-22T01:49:37;9.75;;;7.40;;
8536;SDS011;4306;50.210;10.628;2022-07-22T01:52:04;8.43;;;6.38;;
8536;SDS011;4306;50.210;10.628;2022-07-22T01:54:33;7.00;;;6.30;;
8536;SDS011;4306;50.210;10.628;2022-07-22T01:57:01;8.50;;;6.60;;
8536;SDS011;4306;50.210;10.628;2022-07-22T01:59:28;8.70;;;7.00;;
8536;SDS011;4306;50.210;10.628;2022-07-22T02:01:55;8.65;;;6.50;;
8536;SDS011;4306;50.210;10.628;2022-07-22T02:04:22;9.65;;;7.45;;
8536;SDS011;4306;50.210;10.628;2022-07-22T02:06:49;7.65;;;6.60;;
8536;SDS011;4306;50.210;10.628;2022-07-22T02:09:16;9.35;;;6.82;;
8536;SDS011;4306;50.210;10.628;2022-07-22T02:11:44;8.05;;;6.65;;
8536;SDS011;4306;50.210;10.628;2022-07-22T02:14:11;8.10;;;6.22;;
8536;SDS011;4306;50.210;10.628;2022-07-22T02:16:38;9.48;;;6.97;;
8536;SDS011;4306;50.210;10.628;2022-07-22T02:19:05;8.13;;;6.95;;
8536;SDS011;4306;50.210;10.628;2022-07-22T02:21:32;7.95;;;6.53;;
8536;SDS011;4306;50.210;10.628;2022-07-22T02:23:59;8.48;;;7.20;;
8536;SDS011;4306;50.210;10.628;2022-07-22T02:26:26;8.30;;;6.28;;
8536;SDS011;4306;50.210;10.628;2022-07-22T02:28:54;7.88;;;6.55;;
8536;SDS011;4306;50.210;10.628;2022-07-22T02:31:21;8.93;;;6.65;;
8536;SDS011;4306;50.210;10.628;2022-07-22T02:33:48;9.32;;;6.88;;
8536;SDS011;4306;50.210;10.628;2022-07-22T02:36:15;9.43;;;6.93;;
8536;SDS011;4306;50.210;10.628;2022-07-22T02:38:42;7.85;;;6.30;;
8536;SDS011;4306;50.210;10.628;2022-07-22T02:41:09;7.82;;;6.30;;
8536;SDS011;4306;50.210;10.628;2022-07-22T02:43:36;8.57;;;6.93;;
8536;SDS011;4306;50.210;10.628;2022-07-22T02:46:05;7.47;;;6.68;;
8536;SDS011;4306;50.210;10.628;2022-07-22T02:48:32;8.32;;;6.63;;
8536;SDS011;4306;50.210;10.628;2022-07-22T02:50:59;10.13;;;7.10;;
8536;SDS011;4306;50.210;10.628;2022-07-22T02:53:26;9.13;;;6.88;;
8536;SDS011;4306;50.210;10.628;2022-07-22T02:55:53;7.88;;;6.82;;
8536;SDS011;4306;50.210;10.628;2022-07-22T02:58:20;9.57;;;7.20;;
8536;SDS011;4306;50.210;10.628;2022-07-22T03:00:47;8.13;;;6.22;;
8536;SDS011;4306;50.210;10.628;2022-07-22T03:03:15;8.95;;;7.05;;
8536;SDS011;4306;50.210;10.628;2022-07-22T03:05:42;10.98;;;7.00;;
8536;SDS011;4306;50.210;10.628;2022-07-22T03:08:09;10.07;;;7.55;;
8536;SDS011;4306;50.210;10.628;2022-07-22T03:10:36;9.82;;;7.40;;
8536;SDS011;4306;50.210;10.628;2022-07-22T03:13:03;7.68;;;6.80;;
8536;SDS011;4306;50.210;10.628;2022-07-22T03:15:30;10.55;;;6.80;;
8536;SDS011;4306;50.210;10.628;2022-07-22T03:17:57;8.65;;;7.32;;
8536;SDS011;4306;50.210;10.628;2022-07-22T03:20:25;9.45;;;6.97;;
8536;SDS011;4306;50.210;10.628;2022-07-22T03:22:53;8.43;;;7.05;;
8536;SDS011;4306;50.210;10.628;2022-07-22T03:25:20;8.07;;;6.68;;
8536;SDS011;4306;50.210;10.628;2022-07-22T03:27:47;9.68;;;6.90;;
8536;SDS011;4306;50.210;10.628;2022-07-22T03:30:14;7.82;;;7.03;;
8536;SDS011;4306;50.210;10.628;2022-07-22T03:32:41;8.93;;;7.18;;
8536;SDS011;4306;50.210;10.628;2022-07-22T03:35:10;8.75;;;7.47;;
8536;SDS011;4306;50.210;10.628;2022-07-22T03:37:38;9.27;;;7.60;;
8536;SDS011;4306;50.210;10.628;2022-07-22T03:40:05;9.43;;;7.35;;
8536;SDS011;4306;50.210;10.628;2022-07-22T03:42:33;10.50;;;7.80;;
8536;SDS011;4306;50.210;10.628;2022-07-22T03:45:00;8.48;;;7.05;;
8536;SDS011;4306;50.210;10.628;2022-07-22T03:47:27;8.07;;;7.18;;
8536;SDS011;4306;50.210;10.628;2022-07-22T03:49:54;10.18;;;7.55;;
8536;SDS011;4306;50.210;10.628;2022-07-22T03:52:26;8.82;;;7.18;;
8536;SDS011;4306;50.210;10.628;2022-07-22T03:54:55;11.32;;;7.50;;
8536;SDS011;4306;50.210;10.628;2022-07-22T03:57:21;9.63;;;7.65;;
8536;SDS011;4306;50.210;10.628;2022-07-22T03:59:48;10.30;;;7.90;;
8536;SDS011;4306;50.210;10.628;2022-07-22T04:02:15;22.40;;;7.50;;
8536;SDS011;4306;50.210;10.628;2022-07-22T04:04:43;18.77;;;8.20;;
8536;SDS011;4306;50.210;10.628;2022-07-22T04:07:10;10.35;;;7.00;;
8536;SDS011;4306;50.210;10.628;2022-07-22T04:09:37;10.43;;;7.13;;
8536;SDS011;4306;50.210;10.628;2022-07-22T04:12:06;10.20;;;7.30;;
8536;SDS011;4306;50.210;10.628;2022-07-22T04:14:33;10.18;;;7.10;;
8536;SDS011;4306;50.210;10.628;2022-07-22T04:17:00;8.68;;;7.15;;
8536;SDS011;4306;50.210;10.628;2022-07-22T04:19:27;8.10;;;7.25;;
8536;SDS011;4306;50.210;10.628;2022-07-22T04:21:54;10.80;;;7.65;;
8536;SDS011;4306;50.210;10.628;2022-07-22T04:24:21;11.23;;;7.60;;
8536;SDS011;4306;50.210;10.628;2022-07-22T04:26:48;10.93;;;7.10;;
8536;SDS011;4306;50.210;10.628;2022-07-22T04:29:16;9.43;;;7.40;;
8536;SDS011;4306;50.210;10.628;2022-07-22T04:31:43;9.50;;;7.18;;
8536;SDS011;4306;50.210;10.628;2022-07-22T04:34:10;10.18;;;8.15;;
8536;SDS011;4306;50.210;10.628;2022-07-22T04:36:37;9.95;;;7.78;;
8536;SDS011;4306;50.210;10.628;2022-07-22T04:39:04;11.25;;;7.50;;
8536;SDS011;4306;50.210;10.628;2022-07-22T04:41:31;8.88;;;7.72;;
8536;SDS011;4306;50.210;10.628;2022-07-22T04:43:58;9.13;;;7.53;;
8536;SDS011;4306;50.210;10.628;2022-07-22T04:46:26;8.70;;;7.65;;
8536;SDS011;4306;50.210;10.628;2022-07-22T04:48:53;9.90;;;8.07;;
8536;SDS011;4306;50.210;10.628;2022-07-22T04:51:20;11.68;;;8.38;;
8536;SDS011;4306;50.210;10.628;2022-07-22T04:53:47;10.30;;;8.23;;
8536;SDS011;4306;50.210;10.628;2022-07-22T04:56:14;10.55;;;7.95;;
8536;SDS011;4306;50.210;10.628;2022-07-22T04:58:41;9.52;;;7.68;;
8536;SDS011;4306;50.210;10.628;2022-07-22T05:01:08;10.52;;;8.77;;
8536;SDS011;4306;50.210;10.628;2022-07-22T05:03:38;8.45;;;7.50;;
8536;SDS011;4306;50.210;10.628;2022-07-22T05:06:05;8.93;;;7.70;;
8536;SDS011;4306;50.210;10.628;2022-07-22T05:08:32;10.10;;;8.57;;
8536;SDS011;4306;50.210;10.628;2022-07-22T05:10:59;9.15;;;8.15;;
8536;SDS011;4306;50.210;10.628;2022-07-22T05:13:26;10.57;;;8.95;;
8536;SDS011;4306;50.210;10.628;2022-07-22T05:15:53;11.10;;;8.82;;
8536;SDS011;4306;50.210;10.628;2022-07-22T05:18:20;9.82;;;8.52;;
8536;SDS011;4306;50.210;10.628;2022-07-22T05:20:48;10.07;;;8.05;;
8536;SDS011;4306;50.210;10.628;2022-07-22T05:23:15;12.10;;;8.45;;
8536;SDS011;4306;50.210;10.628;2022-07-22T05:25:42;11.70;;;9.32;;
8536;SDS011;4306;50.210;10.628;2022-07-22T05:28:09;14.82;;;10.77;;
8536;SDS011;4306;50.210;10.628;2022-07-22T05:30:36;12.68;;;11.20;;
8536;SDS011;4306;50.210;10.628;2022-07-22T05:33:03;11.00;;;9.80;;
8536;SDS011;4306;50.210;10.628;2022-07-22T05:35:30;11.80;;;9.65;;
8536;SDS011;4306;50.210;10.628;2022-07-22T05:37:59;11.38;;;8.55;;
8536;SDS011;4306;50.210;10.628;2022-07-22T05:40:26;10.20;;;8.10;;
8536;SDS011;4306;50.210;10.628;2022-07-22T05:42:53;9.35;;;7.35;;
8536;SDS011;4306;50.210;10.628;2022-07-22T05:45:20;10.07;;;7.68;;
8536;SDS011;4306;50.210;10.628;2022-07-22T05:47:47;7.82;;;6.53;;
8536;SDS011;4306;50.210;10.628;2022-07-22T05:50:14;8.43;;;6.63;;
8536;SDS011;4306;50.210;10.628;2022-07-22T05:52:41;9.10;;;6.50;;
8536;SDS011;4306;50.210;10.628;2022-07-22T05:55:10;8.68;;;6.50;;
8536;SDS011;4306;50.210;10.628;2022-07-22T05:57:37;8.70;;;6.18;;
8536;SDS011;4306;50.210;10.628;2022-07-22T06:00:04;8.00;;;5.90;;
8536;SDS011;4306;50.210;10.628;2022-07-22T06:02:32;7.68;;;5.65;;
8536;SDS011;4306;50.210;10.628;2022-07-22T06:04:58;7.13;;;5.35;;
8536;SDS011;4306;50.210;10.628;2022-07-22T06:07:26;6.82;;;4.43;;
8536;SDS011;4306;50.210;10.628;2022-07-22T06:09:53;6.97;;;4.38;;
8536;SDS011;4306;50.210;10.628;2022-07-22T06:12:22;6.20;;;4.40;;
8536;SDS011;4306;50.210;10.628;2022-07-22T06:14:48;5.43;;;3.90;;
8536;SDS011;4306;50.210;10.628;2022-07-22T06:17:15;6.78;;;4.03;;
8536;SDS011;4306;50.210;10.628;2022-07-22T06:19:42;5.15;;;3.88;;
8536;SDS011;4306;50.210;10.628;2022-07-22T06:22:09;4.68;;;4.18;;
8536;SDS011;4306;50.210;10.628;2022-07-22T06:24:36;5.05;;;4.22;;
8536;SDS011;4306;50.210;10.628;2022-07-22T06:27:03;5.47;;;4.57;;
8536;SDS011;4306;50.210;10.628;2022-07-22T06:29:31;4.75;;;4.07;;
8536;SDS011;4306;50.210;10.628;2022-07-22T06:31:58;5.90;;;4.20;;
8536;SDS011;4306;50.210;10.628;2022-07-22T06:34:25;5.85;;;3.63;;
8536;SDS011;4306;50.210;10.628;2022-07-22T06:36:52;5.22;;;3.80;;
8536;SDS011;4306;50.210;10.628;2022-07-22T06:39:19;4.03;;;3.03;;
8536;SDS011;4306;50.210;10.628;2022-07-22T06:41:46;9.35;;;7.45;;
8536;SDS011;4306;50.210;10.628;2022-07-22T06:44:13;6.18;;;4.93;;
8536;SDS011;4306;50.210;10.628;2022-07-22T06:46:41;4.30;;;3.40;;
8536;SDS011;4306;50.210;10.628;2022-07-22T06:49:08;7.07;;;3.30;;
8536;SDS011;4306;50.210;10.628;2022-07-22T06:51:35;4.45;;;3.10;;
8536;SDS011;4306;50.210;10.628;2022-07-22T06:54:02;4.20;;;3.20;;
8536;SDS011;4306;50.210;10.628;2022-07-22T06:56:29;4.75;;;4.25;;
8536;SDS011;4306;50.210;10.628;2022-07-22T06:58:56;5.30;;;3.22;;
8536;SDS011;4306;50.210;10.628;2022-07-22T07:01:23;4.38;;;2.90;;
8536;SDS011;4306;50.210;10.628;2022-07-22T07:03:51;4.70;;;3.25;;
8536;SDS011;4306;50.210;10.628;2022-07-22T07:06:19;4.72;;;3.03;;
8536;SDS011;4306;50.210;10.628;2022-07-22T07:08:46;3.53;;;2.88;;
8536;SDS011;4306;50.210;10.628;2022-07-22T07:11:13;4.15;;;3.08;;
8536;SDS011;4306;50.210;10.628;2022-07-22T07:13:39;4.75;;;3.25;;
8536;SDS011;4306;50.210;10.628;2022-07-22T07:16:07;4.07;;;3.00;;
8536;SDS011;4306;50.210;10.628;2022-07-22T07:18:34;6.13;;;2.88;;
8536;SDS011;4306;50.210;10.628;2022-07-22T07:21:02;4.15;;;2.65;;
8536;SDS011;4306;50.210;10.628;2022-07-22T07:23:30;4.18;;;2.60;;
8536;SDS011;4306;50.210;10.628;2022-07-22T07:25:56;5.15;;;2.97;;
8536;SDS011;4306;50.210;10.628;2022-07-22T07:28:23;3.72;;;2.90;;
8536;SDS011;4306;50.210;10.628;2022-07-22T07:30:50;3.40;;;2.65;;
8536;SDS011;4306;50.210;10.628;2022-07-22T07:33:17;4.85;;;3.20;;
8536;SDS011;4306;50.210;10.628;2022-07-22T07:35:44;4.68;;;3.70;;
8536;SDS011;4306;50.210;10.628;2022-07-22T07:38:13;3.97;;;2.85;;
8536;SDS011;4306;50.210;10.628;2022-07-22T07:40:40;4.50;;;2.78;;
8536;SDS011;4306;50.210;10.628;2022-07-22T07:43:07;3.70;;;2.83;;
8536;SDS011;4306;50.210;10.628;2022-07-22T07:45:33;4.00;;;2.95;;
8536;SDS011;4306;50.210;10.628;2022-07-22T07:48:02;4.07;;;2.70;;
8536;SDS011;4306;50.210;10.628;2022-07-22T07:50:29;4.78;;;2.88;;
8536;SDS011;4306;50.210;10.628;2022-07-22T07:52:56;4.15;;;2.90;;
8536;SDS011;4306;50.210;10.628;2022-07-22T07:55:25;4.03;;;3.22;;
8536;SDS011;4306;50.210;10.628;2022-07-22T07:57:52;4.50;;;3.17;;
8536;SDS011;4306;50.210;10.628;2022-07-22T08:00:20;5.80;;;2.97;;
8536;SDS011;4306;50.210;10.628;2022-07-22T08:02:48;3.40;;;2.85;;
8536;SDS011;4306;50.210;10.628;2022-07-22T08:05:15;3.88;;;2.70;;
8536;SDS011;4306;50.210;10.628;2022-07-22T08:07:44;4.18;;;3.00;;
8536;SDS011;4306;50.210;10.628;2022-07-22T08:10:11;4.13;;;2.60;;
8536;SDS011;4306;50.210;10.628;2022-07-22T08:12:39;4.93;;;2.97;;
8536;SDS011;4306;50.210;10.628;2022-07-22T08:15:07;5.80;;;2.90;;
8536;SDS011;4306;50.210;10.628;2022-07-22T08:17:35;4.35;;;2.65;;
8536;SDS011;4306;50.210;10.628;2022-07-22T08:20:02;5.15;;;2.65;;
8536;SDS011;4306;50.210;10.628;2022-07-22T08:22:30;4.43;;;2.67;;
8536;SDS011;4306;50.210;10.628;2022-07-22T08:24:57;3.95;;;2.95;;
8536;SDS011;4306;50.210;10.628;2022-07-22T08:27:24;3.45;;;2.67;;
8536;SDS011;4306;50.210;10.628;2022-07-22T08:29:53;4.82;;;3.05;;
8536;SDS011;4306;50.210;10.628;2022-07-22T08:32:20;3.70;;;2.60;;
8536;SDS011;4306;50.210;10.628;2022-07-22T08:34:47;4.45;;;2.78;;
8536;SDS011;4306;50.210;10.628;2022-07-22T08:37:14;4.10;;;3.00;;
8536;SDS011;4306;50.210;10.628;2022-07-22T08:39:41;3.25;;;2.53;;
8536;SDS011;4306;50.210;10.628;2022-07-22T08:42:08;3.83;;;2.92;;
8536;SDS011;4306;50.210;10.628;2022-07-22T08:44:35;4.07;;;2.72;;
8536;SDS011;4306;50.210;10.628;2022-07-22T08:47:03;3.60;;;2.50;;
8536;SDS011;4306;50.210;10.628;2022-07-22T08:49:30;5.03;;;3.40;;
8536;SDS011;4306;50.210;10.628;2022-07-22T08:51:58;4.35;;;2.90;;
8536;SDS011;4306;50.210;10.628;2022-07-22T08:54:25;4.22;;;2.85;;
8536;SDS011;4306;50.210;10.628;2022-07-22T08:56:52;5.28;;;3.30;;
8536;SDS011;4306;50.210;10.628;2022-07-22T08:59:19;3.80;;;2.88;;
8536;SDS011;4306;50.210;10.628;2022-07-22T09:02:03;5.13;;;3.20;;
8536;SDS011;4306;50.210;10.628;2022-07-22T09:04:31;3.53;;;2.80;;
8536;SDS011;4306;50.210;10.628;2022-07-22T09:06:59;4.20;;;3.10;;
8536;SDS011;4306;50.210;10.628;2022-07-22T09:09:29;4.30;;;2.90;;
8536;SDS011;4306;50.210;10.628;2022-07-22T09:12:04;3.80;;;3.28;;
8536;SDS011;4306;50.210;10.628;2022-07-22T09:17:23;5.72;;;3.20;;
8536;SDS011;4306;50.210;10.628;2022-07-22T09:19:51;4.40;;;3.13;;
8536;SDS011;4306;50.210;10.628;2022-07-22T09:22:32;4.25;;;3.40;;
8536;SDS011;4306;50.210;10.628;2022-07-22T09:27:46;5.15;;;3.15;;
8536;SDS011;4306;50.210;10.628;2022-07-22T09:30:14;4.18;;;3.13;;
8536;SDS011;4306;50.210;10.628;2022-07-22T09:32:44;4.43;;;3.03;;
8536;SDS011;4306;50.210;10.628;2022-07-22T09:35:13;4.38;;;2.97;;
8536;SDS011;4306;50.210;10.628;2022-07-22T09:37:47;4.50;;;3.10;;
8536;SDS011;4306;50.210;10.628;2022-07-22T09:40:15;3.65;;;3.08;;
8536;SDS011;4306;50.210;10.628;2022-07-22T09:42:44;6.40;;;3.55;;
8536;SDS011;4306;50.210;10.628;2022-07-22T09:45:12;3.92;;;2.90;;
8536;SDS011;4306;50.210;10.628;2022-07-22T09:47:40;3.60;;;2.75;;
8536;SDS011;4306;50.210;10.628;2022-07-22T09:50:17;5.93;;;3.42;;
8536;SDS011;4306;50.210;10.628;2022-07-22T09:52:45;5.03;;;3.05;;
8536;SDS011;4306;50.210;10.628;2022-07-22T09:55:14;4.72;;;3.20;;
8536;SDS011;4306;50.210;10.628;2022-07-22T09:57:42;4.80;;;3.63;;
8536;SDS011;4306;50.210;10.628;2022-07-22T10:00:10;4.78;;;3.15;;
8536;SDS011;4306;50.210;10.628;2022-07-22T10:02:40;4.43;;;3.42;;
8536;SDS011;4306;50.210;10.628;2022-07-22T10:05:11;4.85;;;3.60;;
8536;SDS011;4306;50.210;10.628;2022-07-22T10:07:40;4.43;;;3.35;;
8536;SDS011;4306;50.210;10.628;2022-07-22T10:10:09;5.07;;;3.75;;
8536;SDS011;4306;50.210;10.628;2022-07-22T10:12:37;4.10;;;3.53;;
8536;SDS011;4306;50.210;10.628;2022-07-22T10:15:05;5.03;;;3.60;;
8536;SDS011;4306;50.210;10.628;2022-07-22T10:17:33;4.70;;;3.20;;
8536;SDS011;4306;50.210;10.628;2022-07-22T10:20:03;5.70;;;3.47;;
8536;SDS011;4306;50.210;10.628;2022-07-22T10:22:48;6.18;;;3.40;;
8536;SDS011;4306;50.210;10.628;2022-07-22T10:25:17;5.43;;;3.53;;
8536;SDS011;4306;50.210;10.628;2022-07-22T10:27:46;4.22;;;3.03;;
8536;SDS011;4306;50.210;10.628;2022-07-22T10:30:16;7.00;;;3.17;;
8536;SDS011;4306;50.210;10.628;2022-07-22T10:32:44;5.07;;;3.38;;
8536;SDS011;4306;50.210;10.628;2022-07-22T10:35:21;7.22;;;3.28;;
8536;SDS011;4306;50.210;10.628;2022-07-22T10:37:55;4.65;;;3.50;;
8536;SDS011;4306;50.210;10.628;2022-07-22T10:40:24;3.42;;;3.00;;
8536;SDS011;4306;50.210;10.628;2022-07-22T10:43:03;5.75;;;3.80;;
8536;SDS011;4306;50.210;10.628;2022-07-22T10:45:39;4.72;;;3.15;;
8536;SDS011;4306;50.210;10.628;2022-07-22T10:48:11;5.57;;;3.60;;
8536;SDS011;4306;50.210;10.628;2022-07-22T10:50:40;4.97;;;3.63;;
8536;SDS011;4306;50.210;10.628;2022-07-22T10:53:10;4.22;;;3.05;;
8536;SDS011;4306;50.210;10.628;2022-07-22T10:55:39;4.13;;;3.40;;
8536;SDS011;4306;50.210;10.628;2022-07-22T11:01:26;5.50;;;3.28;;
8536;SDS011;4306;50.210;10.628;2022-07-22T11:03:56;4.20;;;3.15;;
8536;SDS011;4306;50.210;10.628;2022-07-22T11:06:34;6.47;;;3.63;;
8536;SDS011;4306;50.210;10.628;2022-07-22T11:09:03;4.40;;;3.60;;
8536;SDS011;4306;50.210;10.628;2022-07-22T11:11:36;6.32;;;3.72;;
8536;SDS011;4306;50.210;10.628;2022-07-22T11:14:13;10.75;;;3.30;;
8536;SDS011;4306;50.210;10.628;2022-07-22T11:16:45;4.80;;;3.55;;
8536;SDS011;4306;50.210;10.628;2022-07-22T11:19:13;5.30;;;3.47;;
8536;SDS011;4306;50.210;10.628;2022-07-22T11:21:40;5.82;;;3.47;;
8536;SDS011;4306;50.210;10.628;2022-07-22T11:24:08;4.40;;;3.67;;
8536;SDS011;4306;50.210;10.628;2022-07-22T11:26:36;5.43;;;4.05;;
8536;SDS011;4306;50.210;10.628;2022-07-22T11:29:06;5.97;;;4.07;;
8536;SDS011;4306;50.210;10.628;2022-07-22T11:31:34;5.07;;;3.83;;
8536;SDS011;4306;50.210;10.628;2022-07-22T11:34:05;4.63;;;3.40;;
8536;SDS011;4306;50.210;10.628;2022-07-22T11:36:34;6.72;;;3.83;;
8536;SDS011;4306;50.210;10.628;2022-07-22T11:39:02;5.03;;;3.53;;
8536;SDS011;4306;50.210;10.628;2022-07-22T11:41:31;4.05;;;3.35;;
8536;SDS011;4306;50.210;10.628;2022-07-22T11:43:58;5.72;;;3.83;;
8536;SDS011;4306;50.210;10.628;2022-07-22T11:46:25;4.18;;;3.33;;
8536;SDS011;4306;50.210;10.628;2022-07-22T11:48:53;5.32;;;4.15;;
8536;SDS011;4306;50.210;10.628;2022-07-22T11:51:23;4.63;;;3.70;;
8536;SDS011;4306;50.210;10.628;2022-07-22T11:53:55;4.93;;;3.80;;
8536;SDS011;4306;50.210;10.628;2022-07-22T11:56:22;7.30;;;3.70;;
8536;SDS011;4306;50.210;10.628;2022-07-22T11:58:51;6.78;;;4.45;;
8536;SDS011;4306;50.210;10.628;2022-07-22T12:01:21;5.05;;;3.65;;
8536;SDS011;4306;50.210;10.628;2022-07-22T12:03:50;5.10;;;4.07;;
8536;SDS011;4306;50.210;10.628;2022-07-22T12:06:19;4.55;;;3.58;;
8536;SDS011;4306;50.210;10.628;2022-07-22T12:08:47;5.40;;;3.92;;
8536;SDS011;4306;50.210;10.628;2022-07-22T12:11:16;6.32;;;3.50;;
8536;SDS011;4306;50.210;10.628;2022-07-22T12:13:44;5.45;;;3.60;;
8536;SDS011;4306;50.210;10.628;2022-07-22T12:16:18;6.97;;;3.67;;
8536;SDS011;4306;50.210;10.628;2022-07-22T12:18:50;4.55;;;4.10;;
8536;SDS011;4306;50.210;10.628;2022-07-22T12:21:19;7.97;;;3.50;;
8536;SDS011;4306;50.210;10.628;2022-07-22T12:23:54;5.55;;;4.00;;
8536;SDS011;4306;50.210;10.628;2022-07-22T12:26:41;5.68;;;3.80;;
8536;SDS011;4306;50.210;10.628;2022-07-22T12:29:17;6.95;;;3.92;;
8536;SDS011;4306;50.210;10.628;2022-07-22T12:31:48;8.13;;;4.00;;
8536;SDS011;4306;50.210;10.628;2022-07-22T12:34:16;5.25;;;4.05;;
8536;SDS011;4306;50.210;10.628;2022-07-22T12:36:54;5.90;;;4.47;;
8536;SDS011;4306;50.210;10.628;2022-07-22T12:39:21;5.70;;;4.10;;
8536;SDS011;4306;50.210;10.628;2022-07-22T12:41:49;5.00;;;4.00;;
8536;SDS011;4306;50.210;10.628;2022-07-22T12:44:18;6.00;;;3.50;;
8536;SDS011;4306;50.210;10.628;2022-07-22T12:46:48;6.32;;;3.85;;
8536;SDS011;4306;50.210;10.628;2022-07-22T12:49:16;4.88;;;3.75;;
8536;SDS011;4306;50.210;10.628;2022-07-22T12:54:30;4.53;;;3.97;;
8536;SDS011;4306;50.210;10.628;2022-07-22T12:56:57;8.43;;;4.10;;
8536;SDS011;4306;50.210;10.628;2022-07-22T12:59:24;7.63;;;3.83;;
8536;SDS011;4306;50.210;10.628;2022-07-22T13:01:52;6.90;;;4.10;;
8536;SDS011;4306;50.210;10.628;2022-07-22T13:04:19;9.00;;;4.22;;
8536;SDS011;4306;50.210;10.628;2022-07-22T13:06:46;5.72;;;4.22;;
8536;SDS011;4306;50.210;10.628;2022-07-22T13:09:14;5.65;;;3.95;;
8536;SDS011;4306;50.210;10.628;2022-07-22T13:11:41;7.18;;;4.00;;
8536;SDS011;4306;50.210;10.628;2022-07-22T13:14:09;5.75;;;4.25;;
8536;SDS011;4306;50.210;10.628;2022-07-22T13:16:36;6.10;;;4.65;;
8536;SDS011;4306;50.210;10.628;2022-07-22T13:19:05;7.82;;;4.07;;
8536;SDS011;4306;50.210;10.628;2022-07-22T13:21:32;8.35;;;4.38;;
8536;SDS011;4306;50.210;10.628;2022-07-22T13:23:59;5.78;;;4.10;;
8536;SDS011;4306;50.210;10.628;2022-07-22T13:26:26;5.63;;;3.72;;
8536;SDS011;4306;50.210;10.628;2022-07-22T13:28:53;6.20;;;4.22;;
8536;SDS011;4306;50.210;10.628;2022-07-22T13:31:20;5.22;;;3.78;;
8536;SDS011;4306;50.210;10.628;2022-07-22T13:33:47;5.35;;;3.95;;
8536;SDS011;4306;50.210;10.628;2022-07-22T13:36:15;6.72;;;4.22;;
8536;SDS011;4306;50.210;10.628;2022-07-22T13:38:42;4.93;;;3.90;;
8536;SDS011;4306;50.210;10.628;2022-07-22T13:41:09;6.40;;;4.30;;
8536;SDS011;4306;50.210;10.628;2022-07-22T13:43:42;6.22;;;3.67;;
8536;SDS011;4306;50.210;10.628;2022-07-22T13:46:10;5.45;;;4.18;;
8536;SDS011;4306;50.210;10.628;2022-07-22T13:48:37;5.97;;;4.35;;
8536;SDS011;4306;50.210;10.628;2022-07-22T13:51:04;5.93;;;3.92;;
8536;SDS011;4306;50.210;10.628;2022-07-22T13:53:33;6.35;;;4.15;;
8536;SDS011;4306;50.210;10.628;2022-07-22T13:56:00;6.30;;;4.35;;
8536;SDS011;4306;50.210;10.628;2022-07-22T13:58:29;6.45;;;3.80;;
8536;SDS011;4306;50.210;10.628;2022-07-22T14:00:56;6.45;;;4.20;;
8536;SDS011;4306;50.210;10.628;2022-07-22T14:03:23;5.75;;;3.85;;
8536;SDS011;4306;50.210;10.628;2022-07-22T14:05:50;7.18;;;4.10;;
8536;SDS011;4306;50.210;10.628;2022-07-22T14:08:17;6.68;;;4.20;;
8536;SDS011;4306;50.210;10.628;2022-07-22T14:10:45;6.72;;;3.85;;
8536;SDS011;4306;50.210;10.628;2022-07-22T14:13:12;6.90;;;3.90;;
8536;SDS011;4306;50.210;10.628;2022-07-22T14:15:39;5.85;;;4.32;;
8536;SDS011;4306;50.210;10.628;2022-07-22T14:18:06;8.18;;;4.43;;
8536;SDS011;4306;50.210;10.628;2022-07-22T14:20:33;5.07;;;3.97;;
8536;SDS011;4306;50.210;10.628;2022-07-22T14:23:01;8.57;;;4.03;;
8536;SDS011;4306;50.210;10.628;2022-07-22T14:25:31;6.25;;;4.50;;
8536;SDS011;4306;50.210;10.628;2022-07-22T14:27:59;6.60;;;4.35;;
8536;SDS011;4306;50.210;10.628;2022-07-22T14:30:26;7.63;;;4.50;;
8536;SDS011;4306;50.210;10.628;2022-07-22T14:32:54;6.35;;;4.85;;
8536;SDS011;4306;50.210;10.628;2022-07-22T14:35:21;6.05;;;4.30;;
8536;SDS011;4306;50.210;10.628;2022-07-22T14:37:48;8.13;;;4.68;;
8536;SDS011;4306;50.210;10.628;2022-07-22T14:40:15;5.60;;;4.43;;
8536;SDS011;4306;50.210;10.628;2022-07-22T14:42:42;6.80;;;4.25;;
8536;SDS011;4306;50.210;10.628;2022-07-22T14:45:11;5.65;;;4.25;;
8536;SDS011;4306;50.210;10.628;2022-07-22T14:47:38;6.70;;;4.43;;
8536;SDS011;4306;50.210;10.628;2022-07-22T14:50:05;6.15;;;4.30;;
8536;SDS011;4306;50.210;10.628;2022-07-22T14:52:33;6.05;;;4.38;;
8536;SDS011;4306;50.210;10.628;2022-07-22T14:55:00;5.97;;;4.07;;
8536;SDS011;4306;50.210;10.628;2022-07-22T14:57:27;5.30;;;4.13;;
8536;SDS011;4306;50.210;10.628;2022-07-22T14:59:54;7.70;;;4.07;;
8536;SDS011;4306;50.210;10.628;2022-07-22T15:02:23;6.70;;;4.20;;
8536;SDS011;4306;50.210;10.628;2022-07-22T15:04:50;6.40;;;4.20;;
8536;SDS011;4306;50.210;10.628;2022-07-22T15:07:17;6.90;;;4.00;;
8536;SDS011;4306;50.210;10.628;2022-07-22T15:09:44;5.63;;;3.92;;
8536;SDS011;4306;50.210;10.628;2022-07-22T15:12:11;7.05;;;4.07;;
8536;SDS011;4306;50.210;10.628;2022-07-22T15:14:38;6.90;;;4.13;;
8536;SDS011;4306;50.210;10.628;2022-07-22T15:17:05;9.32;;;4.78;;